sensor_id;sensor_type;location;lat;lon;timestamp;P1;durP1;ratioP1;P2;durP2;ratioP2
4533;SDS011;2279;51.448;7.306;2022-07-06T00:01:55;3.57;;;2.23;;
4533;SDS011;2279;51.448;7.306;2022-07-06T00:04:21;2.70;;;2.43;;
4533;SDS011;2279;51.448;7.306;2022-07-06T00:06:47;2.20;;;2.10;;
4533;SDS011;2279;51.448;7.306;2022-07-06T00:09:13;5.60;;;2.37;;
4533;SDS011;2279;51.448;7.306;2022-07-06T00:11:40;4.20;;;1.83;;
4533;SDS011;2279;51.448;7.306;2022-07-06T00:14:06;2.50;;;2.23;;
4533;SDS011;2279;51.448;7.306;2022-07-06T00:16:32;4.70;;;2.27;;
4533;SDS011;2279;51.448;7.306;2022-07-06T00:18:58;1.93;;;1.83;;
4533;SDS011;2279;51.448;7.306;2022-07-06T00:21:24;2.20;;;2.10;;
4533;SDS011;2279;51.448;7.306;2022-07-06T00:23:50;2.90;;;2.70;;
4533;SDS011;2279;51.448;7.306;2022-07-06T00:26:17;2.53;;;2.33;;
4533;SDS011;2279;51.448;7.306;2022-07-06T00:28:43;3.17;;;2.60;;
4533;SDS011;2279;51.448;7.306;2022-07-06T00:31:09;3.57;;;2.33;;
4533;SDS011;2279;51.448;7.306;2022-07-06T00:33:35;2.60;;;2.40;;
4533;SDS011;2279;51.448;7.306;2022-07-06T00:36:01;3.93;;;2.83;;
4533;SDS011;2279;51.448;7.306;2022-07-06T00:38:27;3.90;;;2.70;;
4533;SDS011;2279;51.448;7.306;2022-07-06T00:40:53;3.20;;;2.27;;
4533;SDS011;2279;51.448;7.306;2022-07-06T00:43:19;2.63;;;2.43;;
4533;SDS011;2279;51.448;7.306;2022-07-06T00:45:45;2.50;;;2.30;;
4533;SDS011;2279;51.448;7.306;2022-07-06T00:48:11;2.93;;;2.23;;
4533;SDS011;2279;51.448;7.306;2022-07-06T00:50:37;3.10;;;2.37;;
4533;SDS011;2279;51.448;7.306;2022-07-06T00:53:04;3.53;;;2.10;;
4533;SDS011;2279;51.448;7.306;2022-07-06T00:55:31;5.73;;;2.63;;
4533;SDS011;2279;51.448;7.306;2022-07-06T00:57:58;4.43;;;2.60;;
4533;SDS011;2279;51.448;7.306;2022-07-06T01:00:26;3.00;;;2.80;;
4533;SDS011;2279;51.448;7.306;2022-07-06T01:02:52;4.10;;;2.87;;
4533;SDS011;2279;51.448;7.306;2022-07-06T01:05:18;2.57;;;2.37;;
4533;SDS011;2279;51.448;7.306;2022-07-06T01:07:45;3.23;;;2.27;;
4533;SDS011;2279;51.448;7.306;2022-07-06T01:10:12;2.37;;;2.10;;
4533;SDS011;2279;51.448;7.306;2022-07-06T01:12:39;2.57;;;2.37;;
4533;SDS011;2279;51.448;7.306;2022-07-06T01:15:06;2.63;;;2.40;;
4533;SDS011;2279;51.448;7.306;2022-07-06T01:17:33;3.37;;;2.30;;
4533;SDS011;2279;51.448;7.306;2022-07-06T01:20:18;2.73;;;2.23;;
4533;SDS011;2279;51.448;7.306;2022-07-06T01:22:45;2.60;;;2.40;;
4533;SDS011;2279;51.448;7.306;2022-07-06T01:25:11;3.63;;;1.90;;
4533;SDS011;2279;51.448;7.306;2022-07-06T01:27:38;2.70;;;2.43;;
4533;SDS011;2279;51.448;7.306;2022-07-06T01:30:08;2.97;;;2.37;;
4533;SDS011;2279;51.448;7.306;2022-07-06T01:32:35;2.43;;;2.23;;
4533;SDS011;2279;51.448;7.306;2022-07-06T01:35:01;2.33;;;2.13;;
4533;SDS011;2279;51.448;7.306;2022-07-06T01:37:27;3.00;;;2.70;;
4533;SDS011;2279;51.448;7.306;2022-07-06T01:39:53;6.60;;;2.43;;
4533;SDS011;2279;51.448;7.306;2022-07-06T01:42:19;4.63;;;2.77;;
4533;SDS011;2279;51.448;7.306;2022-07-06T01:44:45;2.50;;;2.30;;
4533;SDS011;2279;51.448;7.306;2022-07-06T01:47:11;7.67;;;2.50;;
4533;SDS011;2279;51.448;7.306;2022-07-06T01:49:37;2.80;;;2.33;;
4533;SDS011;2279;51.448;7.306;2022-07-06T01:52:03;3.43;;;2.50;;
4533;SDS011;2279;51.448;7.306;2022-07-06T01:54:29;2.20;;;2.10;;
4533;SDS011;2279;51.448;7.306;2022-07-06T01:56:55;2.60;;;2.20;;
4533;SDS011;2279;51.448;7.306;2022-07-06T01:59:21;6.30;;;2.57;;
4533;SDS011;2279;51.448;7.306;2022-07-06T02:01:47;2.40;;;2.20;;
4533;SDS011;2279;51.448;7.306;2022-07-06T02:04:13;3.20;;;2.20;;
4533;SDS011;2279;51.448;7.306;2022-07-06T02:06:39;2.80;;;2.33;;
4533;SDS011;2279;51.448;7.306;2022-07-06T02:09:05;2.77;;;2.57;;
4533;SDS011;2279;51.448;7.306;2022-07-06T02:11:31;2.80;;;2.00;;
4533;SDS011;2279;51.448;7.306;2022-07-06T02:13:57;2.67;;;2.30;;
4533;SDS011;2279;51.448;7.306;2022-07-06T02:16:23;4.70;;;2.50;;
4533;SDS011;2279;51.448;7.306;2022-07-06T02:18:49;2.50;;;2.30;;
4533;SDS011;2279;51.448;7.306;2022-07-06T02:21:15;5.07;;;2.37;;
4533;SDS011;2279;51.448;7.306;2022-07-06T02:23:41;5.00;;;2.43;;
4533;SDS011;2279;51.448;7.306;2022-07-06T02:26:07;2.60;;;2.40;;
4533;SDS011;2279;51.448;7.306;2022-07-06T02:28:33;8.57;;;2.50;;
4533;SDS011;2279;51.448;7.306;2022-07-06T02:30:59;2.57;;;2.37;;
4533;SDS011;2279;51.448;7.306;2022-07-06T02:33:25;1.90;;;1.80;;
4533;SDS011;2279;51.448;7.306;2022-07-06T02:35:51;6.60;;;2.30;;
4533;SDS011;2279;51.448;7.306;2022-07-06T02:38:17;4.50;;;3.00;;
4533;SDS011;2279;51.448;7.306;2022-07-06T02:40:43;3.20;;;2.20;;
4533;SDS011;2279;51.448;7.306;2022-07-06T02:43:09;2.70;;;2.27;;
4533;SDS011;2279;51.448;7.306;2022-07-06T02:45:35;4.57;;;2.53;;
4533;SDS011;2279;51.448;7.306;2022-07-06T02:48:01;4.33;;;2.40;;
4533;SDS011;2279;51.448;7.306;2022-07-06T02:50:27;2.40;;;2.20;;
4533;SDS011;2279;51.448;7.306;2022-07-06T02:52:53;4.23;;;2.10;;
4533;SDS011;2279;51.448;7.306;2022-07-06T02:55:20;2.83;;;2.40;;
4533;SDS011;2279;51.448;7.306;2022-07-06T02:57:46;2.70;;;2.50;;
4533;SDS011;2279;51.448;7.306;2022-07-06T03:00:12;5.57;;;2.77;;
4533;SDS011;2279;51.448;7.306;2022-07-06T03:02:38;3.90;;;2.30;;
4533;SDS011;2279;51.448;7.306;2022-07-06T03:05:05;3.23;;;2.50;;
4533;SDS011;2279;51.448;7.306;2022-07-06T03:07:31;4.70;;;2.23;;
4533;SDS011;2279;51.448;7.306;2022-07-06T03:09:57;4.33;;;2.40;;
4533;SDS011;2279;51.448;7.306;2022-07-06T03:12:23;2.43;;;2.23;;
4533;SDS011;2279;51.448;7.306;2022-07-06T03:14:49;5.43;;;2.57;;
4533;SDS011;2279;51.448;7.306;2022-07-06T03:17:15;2.97;;;2.40;;
4533;SDS011;2279;51.448;7.306;2022-07-06T03:19:41;6.00;;;2.17;;
4533;SDS011;2279;51.448;7.306;2022-07-06T03:22:07;3.40;;;2.33;;
4533;SDS011;2279;51.448;7.306;2022-07-06T03:24:33;2.53;;;2.33;;
4533;SDS011;2279;51.448;7.306;2022-07-06T03:26:59;2.00;;;1.90;;
4533;SDS011;2279;51.448;7.306;2022-07-06T03:29:25;2.60;;;2.27;;
4533;SDS011;2279;51.448;7.306;2022-07-06T03:31:51;7.17;;;3.20;;
4533;SDS011;2279;51.448;7.306;2022-07-06T03:34:17;3.83;;;2.70;;
4533;SDS011;2279;51.448;7.306;2022-07-06T03:36:43;4.17;;;2.40;;
4533;SDS011;2279;51.448;7.306;2022-07-06T03:39:09;4.77;;;2.67;;
4533;SDS011;2279;51.448;7.306;2022-07-06T03:41:34;2.93;;;2.40;;
4533;SDS011;2279;51.448;7.306;2022-07-06T03:44:01;2.83;;;2.63;;
4533;SDS011;2279;51.448;7.306;2022-07-06T03:46:27;2.50;;;2.30;;
4533;SDS011;2279;51.448;7.306;2022-07-06T03:48:53;2.90;;;2.70;;
4533;SDS011;2279;51.448;7.306;2022-07-06T03:51:19;4.43;;;3.33;;
4533;SDS011;2279;51.448;7.306;2022-07-06T03:53:45;3.60;;;2.63;;
4533;SDS011;2279;51.448;7.306;2022-07-06T03:56:11;2.60;;;2.40;;
4533;SDS011;2279;51.448;7.306;2022-07-06T03:58:53;6.17;;;2.37;;
4533;SDS011;2279;51.448;7.306;2022-07-06T04:01:22;6.70;;;2.00;;
4533;SDS011;2279;51.448;7.306;2022-07-06T04:03:48;2.53;;;2.43;;
4533;SDS011;2279;51.448;7.306;2022-07-06T04:06:14;3.47;;;2.50;;
4533;SDS011;2279;51.448;7.306;2022-07-06T04:08:40;2.50;;;2.30;;
4533;SDS011;2279;51.448;7.306;2022-07-06T04:11:06;3.57;;;2.60;;
4533;SDS011;2279;51.448;7.306;2022-07-06T04:13:32;3.13;;;2.00;;
4533;SDS011;2279;51.448;7.306;2022-07-06T04:15:58;2.20;;;2.10;;
4533;SDS011;2279;51.448;7.306;2022-07-06T04:18:24;3.97;;;2.10;;
4533;SDS011;2279;51.448;7.306;2022-07-06T04:20:50;2.63;;;2.43;;
4533;SDS011;2279;51.448;7.306;2022-07-06T04:23:16;3.53;;;2.57;;
4533;SDS011;2279;51.448;7.306;2022-07-06T04:25:42;3.97;;;2.50;;
4533;SDS011;2279;51.448;7.306;2022-07-06T04:28:08;3.50;;;2.43;;
4533;SDS011;2279;51.448;7.306;2022-07-06T04:30:34;3.60;;;2.50;;
4533;SDS011;2279;51.448;7.306;2022-07-06T04:33:00;2.70;;;2.30;;
4533;SDS011;2279;51.448;7.306;2022-07-06T04:35:26;2.57;;;2.37;;
4533;SDS011;2279;51.448;7.306;2022-07-06T04:37:52;4.13;;;2.67;;
4533;SDS011;2279;51.448;7.306;2022-07-06T04:40:18;2.73;;;2.33;;
4533;SDS011;2279;51.448;7.306;2022-07-06T04:42:44;2.57;;;2.33;;
4533;SDS011;2279;51.448;7.306;2022-07-06T04:45:10;5.23;;;2.63;;
4533;SDS011;2279;51.448;7.306;2022-07-06T04:47:36;3.70;;;2.20;;
4533;SDS011;2279;51.448;7.306;2022-07-06T04:50:03;2.63;;;2.33;;
4533;SDS011;2279;51.448;7.306;2022-07-06T04:52:29;3.93;;;2.10;;
4533;SDS011;2279;51.448;7.306;2022-07-06T04:54:55;2.63;;;2.43;;
4533;SDS011;2279;51.448;7.306;2022-07-06T04:57:21;4.30;;;2.70;;
4533;SDS011;2279;51.448;7.306;2022-07-06T04:59:47;4.53;;;2.20;;
4533;SDS011;2279;51.448;7.306;2022-07-06T05:02:13;5.50;;;2.37;;
4533;SDS011;2279;51.448;7.306;2022-07-06T05:04:39;6.80;;;2.50;;
4533;SDS011;2279;51.448;7.306;2022-07-06T05:07:05;2.30;;;2.20;;
4533;SDS011;2279;51.448;7.306;2022-07-06T05:09:31;2.07;;;1.87;;
4533;SDS011;2279;51.448;7.306;2022-07-06T05:11:57;2.10;;;2.00;;
4533;SDS011;2279;51.448;7.306;2022-07-06T05:14:23;2.63;;;2.00;;
4533;SDS011;2279;51.448;7.306;2022-07-06T05:16:49;2.30;;;2.07;;
4533;SDS011;2279;51.448;7.306;2022-07-06T05:19:15;3.13;;;2.53;;
4533;SDS011;2279;51.448;7.306;2022-07-06T05:21:41;2.63;;;1.77;;
4533;SDS011;2279;51.448;7.306;2022-07-06T05:24:07;6.30;;;2.47;;
4533;SDS011;2279;51.448;7.306;2022-07-06T05:26:33;4.40;;;2.23;;
4533;SDS011;2279;51.448;7.306;2022-07-06T05:28:59;3.23;;;2.20;;
4533;SDS011;2279;51.448;7.306;2022-07-06T05:31:25;4.93;;;2.60;;
4533;SDS011;2279;51.448;7.306;2022-07-06T05:33:51;2.50;;;2.30;;
4533;SDS011;2279;51.448;7.306;2022-07-06T05:36:17;2.57;;;1.67;;
4533;SDS011;2279;51.448;7.306;2022-07-06T05:38:43;2.83;;;2.30;;
4533;SDS011;2279;51.448;7.306;2022-07-06T05:41:09;3.93;;;2.63;;
4533;SDS011;2279;51.448;7.306;2022-07-06T05:43:35;7.90;;;2.33;;
4533;SDS011;2279;51.448;7.306;2022-07-06T05:46:02;4.60;;;2.17;;
4533;SDS011;2279;51.448;7.306;2022-07-06T05:48:28;8.43;;;2.23;;
4533;SDS011;2279;51.448;7.306;2022-07-06T05:51:13;3.93;;;2.30;;
4533;SDS011;2279;51.448;7.306;2022-07-06T05:53:39;6.97;;;2.80;;
4533;SDS011;2279;51.448;7.306;2022-07-06T05:56:05;5.30;;;2.23;;
4533;SDS011;2279;51.448;7.306;2022-07-06T05:58:31;10.30;;;2.77;;
4533;SDS011;2279;51.448;7.306;2022-07-06T06:00:57;2.27;;;2.07;;
4533;SDS011;2279;51.448;7.306;2022-07-06T06:03:23;2.73;;;2.53;;
4533;SDS011;2279;51.448;7.306;2022-07-06T06:05:49;3.87;;;2.00;;
4533;SDS011;2279;51.448;7.306;2022-07-06T06:08:15;3.30;;;2.40;;
4533;SDS011;2279;51.448;7.306;2022-07-06T06:10:41;2.20;;;2.10;;
4533;SDS011;2279;51.448;7.306;2022-07-06T06:13:07;2.20;;;1.93;;
4533;SDS011;2279;51.448;7.306;2022-07-06T06:15:33;4.80;;;1.80;;
4533;SDS011;2279;51.448;7.306;2022-07-06T06:17:59;5.07;;;1.73;;
4533;SDS011;2279;51.448;7.306;2022-07-06T06:20:26;4.40;;;1.70;;
4533;SDS011;2279;51.448;7.306;2022-07-06T06:22:52;3.73;;;1.80;;
4533;SDS011;2279;51.448;7.306;2022-07-06T06:25:20;5.87;;;2.03;;
4533;SDS011;2279;51.448;7.306;2022-07-06T06:27:46;4.30;;;1.80;;
4533;SDS011;2279;51.448;7.306;2022-07-06T06:30:12;1.60;;;1.50;;
4533;SDS011;2279;51.448;7.306;2022-07-06T06:32:38;6.20;;;2.37;;
4533;SDS011;2279;51.448;7.306;2022-07-06T06:35:05;5.03;;;1.73;;
4533;SDS011;2279;51.448;7.306;2022-07-06T06:37:31;2.20;;;2.00;;
4533;SDS011;2279;51.448;7.306;2022-07-06T06:39:57;8.40;;;2.10;;
4533;SDS011;2279;51.448;7.306;2022-07-06T06:42:23;7.37;;;1.97;;
4533;SDS011;2279;51.448;7.306;2022-07-06T06:44:49;3.27;;;1.70;;
4533;SDS011;2279;51.448;7.306;2022-07-06T06:47:15;2.43;;;1.80;;
4533;SDS011;2279;51.448;7.306;2022-07-06T06:49:41;2.10;;;1.37;;
4533;SDS011;2279;51.448;7.306;2022-07-06T06:52:07;3.13;;;1.40;;
4533;SDS011;2279;51.448;7.306;2022-07-06T06:54:33;2.27;;;1.50;;
4533;SDS011;2279;51.448;7.306;2022-07-06T06:56:59;1.70;;;1.30;;
4533;SDS011;2279;51.448;7.306;2022-07-06T06:59:25;3.70;;;1.17;;
4533;SDS011;2279;51.448;7.306;2022-07-06T07:01:51;2.80;;;1.37;;
4533;SDS011;2279;51.448;7.306;2022-07-06T07:04:17;2.83;;;1.40;;
4533;SDS011;2279;51.448;7.306;2022-07-06T07:06:43;3.57;;;2.00;;
4533;SDS011;2279;51.448;7.306;2022-07-06T07:09:09;3.00;;;1.27;;
4533;SDS011;2279;51.448;7.306;2022-07-06T07:11:35;2.23;;;1.43;;
4533;SDS011;2279;51.448;7.306;2022-07-06T07:14:01;2.07;;;1.20;;
4533;SDS011;2279;51.448;7.306;2022-07-06T07:16:27;3.30;;;1.50;;
4533;SDS011;2279;51.448;7.306;2022-07-06T07:18:53;3.20;;;1.30;;
4533;SDS011;2279;51.448;7.306;2022-07-06T07:21:20;1.90;;;1.20;;
4533;SDS011;2279;51.448;7.306;2022-07-06T07:23:46;2.07;;;1.73;;
4533;SDS011;2279;51.448;7.306;2022-07-06T07:26:12;4.63;;;1.43;;
4533;SDS011;2279;51.448;7.306;2022-07-06T07:28:38;7.43;;;2.47;;
4533;SDS011;2279;51.448;7.306;2022-07-06T07:31:04;10.33;;;1.77;;
4533;SDS011;2279;51.448;7.306;2022-07-06T07:33:31;1.70;;;1.30;;
4533;SDS011;2279;51.448;7.306;2022-07-06T07:35:57;2.23;;;1.30;;
4533;SDS011;2279;51.448;7.306;2022-07-06T07:38:24;2.53;;;1.47;;
4533;SDS011;2279;51.448;7.306;2022-07-06T07:40:50;4.17;;;1.43;;
4533;SDS011;2279;51.448;7.306;2022-07-06T07:43:16;2.20;;;1.20;;
4533;SDS011;2279;51.448;7.306;2022-07-06T07:45:41;1.73;;;1.43;;
4533;SDS011;2279;51.448;7.306;2022-07-06T07:48:07;2.03;;;1.30;;
4533;SDS011;2279;51.448;7.306;2022-07-06T07:50:34;3.43;;;1.27;;
4533;SDS011;2279;51.448;7.306;2022-07-06T07:53:00;6.80;;;1.50;;
4533;SDS011;2279;51.448;7.306;2022-07-06T07:55:26;4.10;;;1.77;;
4533;SDS011;2279;51.448;7.306;2022-07-06T07:57:52;2.50;;;1.67;;
4533;SDS011;2279;51.448;7.306;2022-07-06T08:00:18;1.43;;;1.30;;
4533;SDS011;2279;51.448;7.306;2022-07-06T08:02:46;2.23;;;1.43;;
4533;SDS011;2279;51.448;7.306;2022-07-06T08:05:12;6.60;;;1.40;;
4533;SDS011;2279;51.448;7.306;2022-07-06T08:07:40;4.40;;;1.40;;
4533;SDS011;2279;51.448;7.306;2022-07-06T08:10:06;2.13;;;1.37;;
4533;SDS011;2279;51.448;7.306;2022-07-06T08:12:32;1.73;;;1.40;;
4533;SDS011;2279;51.448;7.306;2022-07-06T08:14:58;1.20;;;1.10;;
4533;SDS011;2279;51.448;7.306;2022-07-06T08:17:24;2.00;;;1.57;;
4533;SDS011;2279;51.448;7.306;2022-07-06T08:19:51;4.67;;;1.40;;
4533;SDS011;2279;51.448;7.306;2022-07-06T08:22:16;9.00;;;2.10;;
4533;SDS011;2279;51.448;7.306;2022-07-06T08:24:42;1.53;;;1.20;;
4533;SDS011;2279;51.448;7.306;2022-07-06T08:27:08;1.27;;;1.17;;
4533;SDS011;2279;51.448;7.306;2022-07-06T08:29:35;1.50;;;1.40;;
4533;SDS011;2279;51.448;7.306;2022-07-06T08:32:00;3.60;;;1.47;;
4533;SDS011;2279;51.448;7.306;2022-07-06T08:34:27;1.47;;;1.07;;
4533;SDS011;2279;51.448;7.306;2022-07-06T08:36:53;14.33;;;2.07;;
4533;SDS011;2279;51.448;7.306;2022-07-06T08:39:19;1.30;;;1.20;;
4533;SDS011;2279;51.448;7.306;2022-07-06T08:41:45;3.37;;;1.20;;
4533;SDS011;2279;51.448;7.306;2022-07-06T08:44:12;1.30;;;1.20;;
4533;SDS011;2279;51.448;7.306;2022-07-06T08:46:38;1.97;;;1.20;;
4533;SDS011;2279;51.448;7.306;2022-07-06T08:49:08;1.60;;;1.40;;
4533;SDS011;2279;51.448;7.306;2022-07-06T08:51:35;2.67;;;1.20;;
4533;SDS011;2279;51.448;7.306;2022-07-06T08:54:04;2.00;;;1.17;;
4533;SDS011;2279;51.448;7.306;2022-07-06T08:56:30;3.13;;;1.50;;
4533;SDS011;2279;51.448;7.306;2022-07-06T08:58:56;2.60;;;1.20;;
4533;SDS011;2279;51.448;7.306;2022-07-06T09:01:22;2.80;;;1.20;;
4533;SDS011;2279;51.448;7.306;2022-07-06T09:03:49;2.60;;;1.53;;
4533;SDS011;2279;51.448;7.306;2022-07-06T09:06:16;2.33;;;1.30;;
4533;SDS011;2279;51.448;7.306;2022-07-06T09:08:42;1.43;;;1.30;;
4533;SDS011;2279;51.448;7.306;2022-07-06T09:11:09;2.50;;;1.50;;
4533;SDS011;2279;51.448;7.306;2022-07-06T09:13:35;2.53;;;1.30;;
4533;SDS011;2279;51.448;7.306;2022-07-06T09:16:10;1.00;;;0.90;;
4533;SDS011;2279;51.448;7.306;2022-07-06T09:18:37;2.60;;;1.20;;
4533;SDS011;2279;51.448;7.306;2022-07-06T09:21:04;10.90;;;1.43;;
4533;SDS011;2279;51.448;7.306;2022-07-06T09:23:30;4.00;;;1.50;;
4533;SDS011;2279;51.448;7.306;2022-07-06T09:25:56;1.57;;;1.30;;
4533;SDS011;2279;51.448;7.306;2022-07-06T09:28:22;1.77;;;1.20;;
4533;SDS011;2279;51.448;7.306;2022-07-06T09:30:48;3.17;;;1.63;;
4533;SDS011;2279;51.448;7.306;2022-07-06T09:33:17;1.67;;;1.23;;
4533;SDS011;2279;51.448;7.306;2022-07-06T09:35:43;4.50;;;1.00;;
4533;SDS011;2279;51.448;7.306;2022-07-06T09:38:13;1.90;;;1.17;;
4533;SDS011;2279;51.448;7.306;2022-07-06T09:40:43;3.70;;;1.70;;
4533;SDS011;2279;51.448;7.306;2022-07-06T09:43:16;2.30;;;1.30;;
4533;SDS011;2279;51.448;7.306;2022-07-06T09:45:44;1.10;;;1.00;;
4533;SDS011;2279;51.448;7.306;2022-07-06T09:48:12;4.33;;;1.70;;
4533;SDS011;2279;51.448;7.306;2022-07-06T09:50:39;1.57;;;1.20;;
4533;SDS011;2279;51.448;7.306;2022-07-06T09:53:06;2.07;;;1.00;;
4533;SDS011;2279;51.448;7.306;2022-07-06T09:55:32;1.23;;;1.13;;
4533;SDS011;2279;51.448;7.306;2022-07-06T09:57:58;3.30;;;1.07;;
4533;SDS011;2279;51.448;7.306;2022-07-06T10:00:24;3.47;;;1.33;;
4533;SDS011;2279;51.448;7.306;2022-07-06T10:02:50;3.10;;;1.37;;
4533;SDS011;2279;51.448;7.306;2022-07-06T10:05:16;2.83;;;1.33;;
4533;SDS011;2279;51.448;7.306;2022-07-06T10:07:45;1.53;;;1.10;;
4533;SDS011;2279;51.448;7.306;2022-07-06T10:10:15;1.30;;;1.20;;
4533;SDS011;2279;51.448;7.306;2022-07-06T10:12:42;2.43;;;0.90;;
4533;SDS011;2279;51.448;7.306;2022-07-06T10:15:08;2.50;;;1.10;;
4533;SDS011;2279;51.448;7.306;2022-07-06T10:17:34;4.07;;;1.47;;
4533;SDS011;2279;51.448;7.306;2022-07-06T10:20:01;4.63;;;1.90;;
4533;SDS011;2279;51.448;7.306;2022-07-06T10:22:27;1.90;;;0.93;;
4533;SDS011;2279;51.448;7.306;2022-07-06T10:24:53;1.33;;;1.23;;
4533;SDS011;2279;51.448;7.306;2022-07-06T10:27:23;3.83;;;1.20;;
4533;SDS011;2279;51.448;7.306;2022-07-06T10:29:49;1.50;;;1.33;;
4533;SDS011;2279;51.448;7.306;2022-07-06T10:32:17;3.53;;;1.30;;
4533;SDS011;2279;51.448;7.306;2022-07-06T10:34:44;6.83;;;2.73;;
4533;SDS011;2279;51.448;7.306;2022-07-06T10:37:20;1.47;;;1.00;;
4533;SDS011;2279;51.448;7.306;2022-07-06T10:39:47;3.60;;;1.50;;
4533;SDS011;2279;51.448;7.306;2022-07-06T10:42:45;2.20;;;1.20;;
4533;SDS011;2279;51.448;7.306;2022-07-06T10:50:38;1.40;;;1.20;;
4533;SDS011;2279;51.448;7.306;2022-07-06T10:53:11;5.53;;;1.10;;
4533;SDS011;2279;51.448;7.306;2022-07-06T10:55:39;4.07;;;1.30;;
4533;SDS011;2279;51.448;7.306;2022-07-06T10:58:06;6.27;;;1.10;;
4533;SDS011;2279;51.448;7.306;2022-07-06T11:03:34;1.30;;;0.80;;
4533;SDS011;2279;51.448;7.306;2022-07-06T11:11:12;1.20;;;0.97;;
4533;SDS011;2279;51.448;7.306;2022-07-06T11:16:18;2.13;;;1.17;;
4533;SDS011;2279;51.448;7.306;2022-07-06T11:18:48;2.33;;;1.23;;
4533;SDS011;2279;51.448;7.306;2022-07-06T11:21:18;5.43;;;1.40;;
4533;SDS011;2279;51.448;7.306;2022-07-06T11:23:45;3.97;;;1.37;;
4533;SDS011;2279;51.448;7.306;2022-07-06T11:26:12;1.70;;;1.60;;
4533;SDS011;2279;51.448;7.306;2022-07-06T11:28:38;1.03;;;0.93;;
4533;SDS011;2279;51.448;7.306;2022-07-06T11:31:04;1.33;;;1.23;;
4533;SDS011;2279;51.448;7.306;2022-07-06T11:33:30;2.07;;;1.03;;
4533;SDS011;2279;51.448;7.306;2022-07-06T11:36:19;2.50;;;1.13;;
4533;SDS011;2279;51.448;7.306;2022-07-06T11:38:46;1.40;;;0.90;;
4533;SDS011;2279;51.448;7.306;2022-07-06T11:41:12;0.80;;;0.80;;
4533;SDS011;2279;51.448;7.306;2022-07-06T11:43:46;1.07;;;0.80;;
4533;SDS011;2279;51.448;7.306;2022-07-06T11:48:51;2.30;;;1.73;;
4533;SDS011;2279;51.448;7.306;2022-07-06T11:51:17;2.13;;;1.10;;
4533;SDS011;2279;51.448;7.306;2022-07-06T11:53:48;3.50;;;1.20;;
4533;SDS011;2279;51.448;7.306;2022-07-06T11:56:14;1.50;;;1.10;;
4533;SDS011;2279;51.448;7.306;2022-07-06T11:58:41;2.90;;;1.10;;
4533;SDS011;2279;51.448;7.306;2022-07-06T12:01:09;1.50;;;0.80;;
4533;SDS011;2279;51.448;7.306;2022-07-06T12:03:36;1.77;;;0.97;;
4533;SDS011;2279;51.448;7.306;2022-07-06T12:06:02;1.30;;;0.97;;
4533;SDS011;2279;51.448;7.306;2022-07-06T12:08:28;1.57;;;1.10;;
4533;SDS011;2279;51.448;7.306;2022-07-06T12:10:54;3.87;;;0.90;;
4533;SDS011;2279;51.448;7.306;2022-07-06T12:13:21;1.57;;;1.10;;
4533;SDS011;2279;51.448;7.306;2022-07-06T12:15:48;3.20;;;1.33;;
4533;SDS011;2279;51.448;7.306;2022-07-06T12:18:14;1.73;;;1.10;;
4533;SDS011;2279;51.448;7.306;2022-07-06T12:20:40;2.17;;;1.27;;
4533;SDS011;2279;51.448;7.306;2022-07-06T12:23:06;1.40;;;1.10;;
4533;SDS011;2279;51.448;7.306;2022-07-06T12:25:33;1.97;;;1.10;;
4533;SDS011;2279;51.448;7.306;2022-07-06T12:27:59;2.40;;;1.23;;
4533;SDS011;2279;51.448;7.306;2022-07-06T12:30:25;2.03;;;1.33;;
4533;SDS011;2279;51.448;7.306;2022-07-06T12:35:37;3.00;;;1.50;;
4533;SDS011;2279;51.448;7.306;2022-07-06T12:38:03;1.97;;;1.10;;
4533;SDS011;2279;51.448;7.306;2022-07-06T12:40:29;1.27;;;1.17;;
4533;SDS011;2279;51.448;7.306;2022-07-06T12:42:56;2.37;;;1.30;;
4533;SDS011;2279;51.448;7.306;2022-07-06T12:45:26;1.67;;;1.20;;
4533;SDS011;2279;51.448;7.306;2022-07-06T12:48:05;1.60;;;1.50;;
4533;SDS011;2279;51.448;7.306;2022-07-06T12:50:32;1.63;;;1.13;;
4533;SDS011;2279;51.448;7.306;2022-07-06T12:52:58;2.40;;;1.20;;
4533;SDS011;2279;51.448;7.306;2022-07-06T12:55:25;2.83;;;1.17;;
4533;SDS011;2279;51.448;7.306;2022-07-06T12:57:52;4.57;;;1.20;;
4533;SDS011;2279;51.448;7.306;2022-07-06T13:00:18;3.90;;;1.20;;
4533;SDS011;2279;51.448;7.306;2022-07-06T13:02:46;2.33;;;1.20;;
4533;SDS011;2279;51.448;7.306;2022-07-06T13:05:14;1.77;;;1.50;;
4533;SDS011;2279;51.448;7.306;2022-07-06T13:07:44;3.00;;;1.70;;
4533;SDS011;2279;51.448;7.306;2022-07-06T13:10:12;1.20;;;1.10;;
4533;SDS011;2279;51.448;7.306;2022-07-06T13:12:38;2.13;;;0.83;;
4533;SDS011;2279;51.448;7.306;2022-07-06T13:15:05;1.67;;;1.27;;
4533;SDS011;2279;51.448;7.306;2022-07-06T13:17:32;1.27;;;1.17;;
4533;SDS011;2279;51.448;7.306;2022-07-06T13:19:58;1.97;;;1.50;;
4533;SDS011;2279;51.448;7.306;2022-07-06T13:22:24;1.30;;;0.90;;
4533;SDS011;2279;51.448;7.306;2022-07-06T13:24:50;2.40;;;1.20;;
4533;SDS011;2279;51.448;7.306;2022-07-06T13:27:16;2.07;;;1.40;;
4533;SDS011;2279;51.448;7.306;2022-07-06T13:29:42;5.17;;;1.50;;
4533;SDS011;2279;51.448;7.306;2022-07-06T13:32:08;6.43;;;1.60;;
4533;SDS011;2279;51.448;7.306;2022-07-06T13:34:34;1.63;;;0.90;;
4533;SDS011;2279;51.448;7.306;2022-07-06T13:37:01;3.53;;;1.17;;
4533;SDS011;2279;51.448;7.306;2022-07-06T13:39:27;1.83;;;1.03;;
4533;SDS011;2279;51.448;7.306;2022-07-06T13:41:54;1.57;;;1.07;;
4533;SDS011;2279;51.448;7.306;2022-07-06T13:44:20;2.20;;;1.20;;
4533;SDS011;2279;51.448;7.306;2022-07-06T13:46:46;2.07;;;1.13;;
4533;SDS011;2279;51.448;7.306;2022-07-06T13:49:12;1.63;;;1.50;;
4533;SDS011;2279;51.448;7.306;2022-07-06T13:51:38;1.40;;;1.30;;
4533;SDS011;2279;51.448;7.306;2022-07-06T13:54:04;1.50;;;1.40;;
4533;SDS011;2279;51.448;7.306;2022-07-06T13:56:30;1.30;;;1.20;;
4533;SDS011;2279;51.448;7.306;2022-07-06T13:58:56;2.50;;;1.13;;
4533;SDS011;2279;51.448;7.306;2022-07-06T14:01:23;1.97;;;1.50;;
4533;SDS011;2279;51.448;7.306;2022-07-06T14:03:49;2.23;;;1.60;;
4533;SDS011;2279;51.448;7.306;2022-07-06T14:06:15;4.13;;;1.90;;
4533;SDS011;2279;51.448;7.306;2022-07-06T14:08:41;2.17;;;1.43;;
4533;SDS011;2279;51.448;7.306;2022-07-06T14:11:08;3.93;;;1.80;;
4533;SDS011;2279;51.448;7.306;2022-07-06T14:13:34;3.00;;;1.63;;
4533;SDS011;2279;51.448;7.306;2022-07-06T14:16:00;4.13;;;2.10;;
4533;SDS011;2279;51.448;7.306;2022-07-06T14:18:27;1.60;;;1.50;;
4533;SDS011;2279;51.448;7.306;2022-07-06T14:20:53;1.53;;;1.43;;
4533;SDS011;2279;51.448;7.306;2022-07-06T14:23:19;1.73;;;1.63;;
4533;SDS011;2279;51.448;7.306;2022-07-06T14:25:46;1.53;;;1.43;;
4533;SDS011;2279;51.448;7.306;2022-07-06T14:28:12;1.37;;;1.27;;
4533;SDS011;2279;51.448;7.306;2022-07-06T14:30:38;2.60;;;1.63;;
4533;SDS011;2279;51.448;7.306;2022-07-06T14:33:08;4.23;;;1.33;;
4533;SDS011;2279;51.448;7.306;2022-07-06T14:35:34;7.33;;;1.60;;
4533;SDS011;2279;51.448;7.306;2022-07-06T14:38:01;2.40;;;1.60;;
4533;SDS011;2279;51.448;7.306;2022-07-06T14:40:27;3.83;;;1.43;;
4533;SDS011;2279;51.448;7.306;2022-07-06T14:42:53;1.70;;;1.60;;
4533;SDS011;2279;51.448;7.306;2022-07-06T14:45:19;1.40;;;1.27;;
4533;SDS011;2279;51.448;7.306;2022-07-06T14:47:45;3.57;;;1.30;;
4533;SDS011;2279;51.448;7.306;2022-07-06T14:50:11;1.83;;;1.40;;
4533;SDS011;2279;51.448;7.306;2022-07-06T14:52:37;2.00;;;1.37;;
4533;SDS011;2279;51.448;7.306;2022-07-06T14:55:03;1.70;;;1.53;;
4533;SDS011;2279;51.448;7.306;2022-07-06T14:57:29;1.33;;;1.13;;
4533;SDS011;2279;51.448;7.306;2022-07-06T14:59:55;1.87;;;1.20;;
4533;SDS011;2279;51.448;7.306;2022-07-06T15:02:21;1.67;;;1.30;;
4533;SDS011;2279;51.448;7.306;2022-07-06T15:04:47;1.60;;;1.50;;
4533;SDS011;2279;51.448;7.306;2022-07-06T15:07:13;3.30;;;1.33;;
4533;SDS011;2279;51.448;7.306;2022-07-06T15:09:39;1.40;;;1.30;;
4533;SDS011;2279;51.448;7.306;2022-07-06T15:12:06;3.63;;;1.47;;
4533;SDS011;2279;51.448;7.306;2022-07-06T15:14:32;3.20;;;1.30;;
4533;SDS011;2279;51.448;7.306;2022-07-06T15:16:58;4.00;;;1.70;;
4533;SDS011;2279;51.448;7.306;2022-07-06T15:19:24;1.60;;;1.50;;
4533;SDS011;2279;51.448;7.306;2022-07-06T15:21:50;2.07;;;1.50;;
4533;SDS011;2279;51.448;7.306;2022-07-06T15:24:16;1.87;;;1.73;;
4533;SDS011;2279;51.448;7.306;2022-07-06T15:26:43;2.50;;;1.63;;
4533;SDS011;2279;51.448;7.306;2022-07-06T15:29:09;3.30;;;1.60;;
4533;SDS011;2279;51.448;7.306;2022-07-06T15:31:35;5.33;;;1.80;;
4533;SDS011;2279;51.448;7.306;2022-07-06T15:34:01;2.20;;;2.00;;